KSGU

St George Regional Airport

St George, Utah, USA
KSGU 211720Z 2118/2218 VRB04KT P6SM SKC FM212000 24014G24KT P6SM SKC FM220200 22010KT P6SM SKC FM220600 11007KT P6SM SKC
Issued Valid From Valid To
Jun-21 @ 17:20 UTC
(48 minutes ago)
Jun-21 @ 18:00 UTC
(8 minutes ago)
Jun-22 @ 18:00 UTC
(in 24 hours)
Jun-21 @ 18:00 to Jun-21 @ 20:00
KSGU 211720Z 2118/2218 VRB04KT P6SM SKC
Wind Visibility Clouds
Variable at 4 knots Greater than 6 miles
  • Clear skies
From Jun-21 @ 20:00 to Jun-22 @ 02:00
FM212000 24014G24KT P6SM SKC
Wind Visibility Clouds
240° at 14 knots
 Gusting to 24 knots
Greater than 6 miles
  • Clear skies
From Jun-22 @ 02:00 to Jun-22 @ 06:00
FM220200 22010KT P6SM SKC
Wind Visibility Clouds
220° at 10 knots Greater than 6 miles
  • Clear skies
From Jun-22 @ 06:00 to Jun-22 @ 18:00
FM220600 11007KT P6SM SKC
Wind Visibility Clouds
110° at 7 knots Greater than 6 miles
  • Clear skies
KSGU 211720Z 2118/2218 VRB04KT P6SM SKC FM212000 24014G24KT P6SM SKC FM220200 22010KT P6SM SKC FM220600 11007KT P6SM SKC
Issued Jun-21 @ 17:20 UTC
(48 minutes ago)
Valid From Jun-21 @ 18:00 UTC
(8 minutes ago)
Valid To Jun-22 @ 18:00 UTC
(in 24 hours)
Jun-21 @ 18:00 - Jun-21 @ 20:00
Wind Visibility
Variable at 4 knots Greater than 6 miles
Clouds
  • Clear skies
From Jun-21 @ 20:00 - Jun-22 @ 02:00
Wind Visibility
240° at 14 knots
 Gusting to 24 knots
Greater than 6 miles
Clouds
  • Clear skies
From Jun-22 @ 02:00 - Jun-22 @ 06:00
Wind Visibility
220° at 10 knots Greater than 6 miles
Clouds
  • Clear skies
From Jun-22 @ 06:00 - Jun-22 @ 18:00
Wind Visibility
110° at 7 knots Greater than 6 miles
Clouds
  • Clear skies